Time;durP1;ratioP1;P1;durP2;ratioP2;P2;SDS_P1;SDS_P2;PMS_P1;PMS_P2;Temp;Humidity;BMP_temperature;BMP_pressure;BME280_temperature;BME280_humidity;BME280_pressure;Samples;Min_cycle;Max_cycle;Signal;HPM_P1;HPM_P2
2021/11/06 00:00:59;;;;;;;6.68;4.95;;;16.40;77.00;;;;;;4919531;29;20464;-79
2021/11/06 00:03:25;;;;;;;5.63;4.80;;;16.40;77.00;;;;;;4899510;29;20036;-78
2021/11/06 00:05:51;;;;;;;7.30;4.85;;;16.40;76.80;;;;;;4920483;29;20032;-79
2021/11/06 00:08:17;;;;;;;6.72;5.18;;;16.40;76.90;;;;;;4920104;29;20062;-79
2021/11/06 00:10:43;;;;;;;5.82;5.18;;;16.40;76.80;;;;;;4918327;29;20040;-78
2021/11/06 00:13:09;;;;;;;5.97;4.90;;;16.30;76.70;;;;;;4906918;29;20139;-79
2021/11/06 00:15:36;;;;;;;6.72;5.50;;;16.40;76.70;;;;;;4917343;29;20067;-79
2021/11/06 00:18:03;;;;;;;6.78;5.47;;;16.40;76.70;;;;;;4906612;29;20040;-79
2021/11/06 00:20:29;;;;;;;7.30;5.05;;;16.30;76.60;;;;;;4919172;29;20084;-79
2021/11/06 00:22:55;;;;;;;8.13;5.47;;;16.40;76.70;;;;;;4902151;29;20036;-79
2021/11/06 00:25:23;;;;;;;8.02;5.53;;;16.40;76.60;;;;;;4919256;29;20122;-79
2021/11/06 00:27:50;;;;;;;9.30;5.60;;;16.40;77.00;;;;;;4919564;29;20044;-79
2021/11/06 00:30:16;;;;;;;6.63;5.38;;;16.40;76.40;;;;;;4916619;29;20040;-79
2021/11/06 00:32:42;;;;;;;8.80;5.82;;;16.40;76.30;;;;;;4918699;29;20039;-79
2021/11/06 00:35:09;;;;;;;9.05;5.80;;;16.30;76.20;;;;;;4919805;29;20038;-79
2021/11/06 00:37:37;;;;;;;7.05;5.60;;;16.30;76.10;;;;;;4919154;29;20179;-79
2021/11/06 00:40:05;;;;;;;6.80;5.82;;;16.30;75.80;;;;;;4919837;29;21526;-79
2021/11/06 00:42:30;;;;;;;9.52;5.80;;;16.30;75.90;;;;;;4917696;29;20032;-79
2021/11/06 00:44:56;;;;;;;7.07;5.50;;;16.30;76.00;;;;;;4919077;29;20040;-79
2021/11/06 00:47:22;;;;;;;9.88;5.65;;;16.30;76.00;;;;;;4917518;29;20671;-79
2021/11/06 00:49:48;;;;;;;6.85;5.75;;;16.30;76.00;;;;;;4919889;29;20039;-79
2021/11/06 00:52:14;;;;;;;8.10;5.50;;;16.30;75.90;;;;;;4920119;29;20036;-80
2021/11/06 00:54:40;;;;;;;7.47;6.05;;;16.30;76.00;;;;;;4918168;29;20368;-82
2021/11/06 00:57:06;;;;;;;7.82;6.10;;;16.30;76.10;;;;;;4919825;29;20060;-80
2021/11/06 00:59:32;;;;;;;10.32;6.63;;;16.30;76.20;;;;;;4917130;29;20047;-80
2021/11/06 01:01:58;;;;;;;6.00;5.18;;;16.30;76.10;;;;;;4917706;29;20036;-80
2021/11/06 01:04:24;;;;;;;7.55;5.88;;;16.30;76.20;;;;;;4918350;29;20076;-80
2021/11/06 01:06:50;;;;;;;6.75;5.68;;;16.30;76.20;;;;;;4918453;29;20527;-81
2021/11/06 01:09:16;;;;;;;7.68;5.82;;;16.30;76.10;;;;;;4920099;29;20092;-81
2021/11/06 01:11:42;;;;;;;7.47;5.75;;;16.30;76.10;;;;;;4919359;29;20060;-80
2021/11/06 01:14:08;;;;;;;8.52;6.28;;;16.30;76.20;;;;;;4917255;29;20135;-80
2021/11/06 01:16:34;;;;;;;7.75;6.07;;;16.30;76.20;;;;;;4917159;29;20089;-79
2021/11/06 01:19:00;;;;;;;10.93;6.70;;;16.30;76.40;;;;;;4918269;29;20040;-81
2021/11/06 01:21:27;;;;;;;7.95;5.90;;;16.30;76.20;;;;;;4901088;29;20055;-81
2021/11/06 01:23:53;;;;;;;8.35;6.03;;;16.30;76.00;;;;;;4898243;29;20028;-82
2021/11/06 01:26:19;;;;;;;7.82;6.38;;;16.30;76.20;;;;;;4905061;29;20051;-80
2021/11/06 01:28:45;;;;;;;11.82;6.55;;;16.20;76.40;;;;;;4918902;29;20040;-80
2021/11/06 01:31:11;;;;;;;9.20;6.35;;;16.30;76.40;;;;;;4917422;29;20041;-80
2021/11/06 01:33:37;;;;;;;8.38;6.05;;;16.30;76.30;;;;;;4919777;29;20028;-80
2021/11/06 01:36:03;;;;;;;10.25;6.60;;;16.30;76.40;;;;;;4898600;29;20039;-79
2021/11/06 01:38:29;;;;;;;7.60;6.10;;;16.30;76.20;;;;;;4898937;29;20563;-81
2021/11/06 01:40:55;;;;;;;9.48;6.50;;;16.30;76.30;;;;;;4918203;29;20040;-81
2021/11/06 01:43:21;;;;;;;7.88;6.20;;;16.30;76.20;;;;;;4917381;29;20041;-81
2021/11/06 01:45:59;;;;;;;8.18;6.20;;;16.30;76.20;;;;;;4897512;29;20084;-82
2021/11/06 01:48:25;;;;;;;9.65;7.20;;;16.30;76.10;;;;;;4886960;29;20036;-82
2021/11/06 01:50:52;;;;;;;9.70;6.70;;;16.20;76.10;;;;;;4904201;29;20033;-82
2021/11/06 01:53:18;;;;;;;8.10;6.03;;;16.20;76.00;;;;;;4904131;29;20027;-82
2021/11/06 01:55:44;;;;;;;9.15;7.00;;;16.30;76.00;;;;;;4917047;29;20032;-81
2021/11/06 01:58:11;;;;;;;11.77;7.50;;;16.20;75.80;;;;;;4916604;29;20036;-81
2021/11/06 02:00:37;;;;;;;8.32;6.80;;;16.20;75.70;;;;;;4917738;29;20418;-81
2021/11/06 02:03:03;;;;;;;10.38;7.15;;;16.20;75.60;;;;;;4903972;29;20127;-82
2021/11/06 02:05:28;;;;;;;8.60;6.70;;;16.20;75.80;;;;;;4904029;29;20511;-82
2021/11/06 02:07:54;;;;;;;8.00;6.43;;;16.20;75.70;;;;;;4900500;29;20040;-82
2021/11/06 02:10:20;;;;;;;7.22;6.25;;;16.20;75.60;;;;;;4917278;29;20044;-81
2021/11/06 02:12:46;;;;;;;8.55;6.63;;;16.20;75.30;;;;;;4900404;29;20072;-81
2021/11/06 02:15:16;;;;;;;9.13;6.47;;;16.20;75.20;;;;;;4917466;29;20038;-81
2021/11/06 02:17:43;;;;;;;11.63;6.93;;;16.20;75.10;;;;;;4917401;29;20412;-81
2021/11/06 02:20:09;;;;;;;9.02;6.97;;;16.20;75.10;;;;;;4916731;29;20042;-81
2021/11/06 02:22:36;;;;;;;10.48;6.88;;;16.20;75.20;;;;;;4918935;29;20040;-81
2021/11/06 02:25:02;;;;;;;10.23;6.70;;;16.20;74.90;;;;;;4888154;29;20374;-81
2021/11/06 02:27:28;;;;;;;9.77;6.78;;;16.20;74.70;;;;;;4883759;29;20063;-82
2021/11/06 02:29:55;;;;;;;10.10;6.40;;;16.20;74.40;;;;;;4898080;29;20036;-82
2021/11/06 02:32:21;;;;;;;10.88;6.60;;;16.20;74.40;;;;;;4881663;29;20067;-81
2021/11/06 02:34:46;;;;;;;10.23;6.80;;;16.20;74.30;;;;;;4917057;29;20036;-81
2021/11/06 02:37:12;;;;;;;10.25;7.53;;;16.20;74.20;;;;;;4900380;29;20123;-81
2021/11/06 02:39:38;;;;;;;8.93;6.85;;;16.20;74.10;;;;;;4904567;29;20118;-82
2021/11/06 02:42:08;;;;;;;9.75;6.93;;;16.20;74.50;;;;;;4918885;29;20032;-82
2021/11/06 02:44:34;;;;;;;7.93;6.32;;;16.20;74.50;;;;;;4917240;29;20039;-82
2021/11/06 02:47:01;;;;;;;8.57;6.68;;;16.20;74.10;;;;;;4893282;29;20169;-80
2021/11/06 02:49:27;;;;;;;10.48;6.90;;;16.20;74.30;;;;;;4898823;29;20028;-81
2021/11/06 02:51:53;;;;;;;9.48;7.30;;;16.20;74.40;;;;;;4899383;29;20032;-82
2021/11/06 02:54:20;;;;;;;10.00;7.10;;;16.20;74.30;;;;;;4916774;29;20826;-82
2021/11/06 02:56:46;;;;;;;9.68;6.40;;;16.20;74.20;;;;;;4904593;29;20068;-82
2021/11/06 02:59:12;;;;;;;8.07;6.85;;;16.20;73.90;;;;;;4916434;29;20040;-82
2021/11/06 03:01:38;;;;;;;9.98;6.60;;;16.20;73.60;;;;;;4917373;29;20046;-83
2021/11/06 03:04:11;;;;;;;8.75;6.55;;;16.20;73.20;;;;;;4881706;29;20043;-82
2021/11/06 03:06:38;;;;;;;8.27;6.13;;;16.20;72.80;;;;;;4901003;29;20072;-82
2021/11/06 03:09:05;;;;;;;6.70;5.50;;;16.10;72.60;;;;;;4901529;29;20036;-81
2021/11/06 03:11:33;;;;;;;9.90;5.65;;;16.20;72.80;;;;;;4903895;29;20032;-80
2021/11/06 03:14:00;;;;;;;7.30;5.55;;;16.10;72.00;;;;;;4917061;29;20047;-82
2021/11/06 03:16:26;;;;;;;6.65;4.85;;;16.10;71.30;;;;;;4915698;29;20043;-81
2021/11/06 03:18:52;;;;;;;5.60;4.90;;;16.10;70.70;;;;;;4917427;29;20040;-81
2021/11/06 03:21:21;;;;;;;7.50;4.40;;;16.10;70.10;;;;;;4903261;29;20503;-82
2021/11/06 03:23:48;;;;;;;6.93;4.50;;;16.10;69.50;;;;;;4919517;29;20040;-81
2021/11/06 03:26:14;;;;;;;5.70;3.97;;;16.00;69.20;;;;;;4903525;29;20052;-81
2021/11/06 03:28:40;;;;;;;4.70;3.85;;;16.00;69.10;;;;;;4921005;29;20063;-80
2021/11/06 03:31:06;;;;;;;6.57;3.85;;;16.00;68.90;;;;;;4899214;29;20035;-81
2021/11/06 03:33:33;;;;;;;4.70;3.70;;;16.00;68.70;;;;;;4920127;29;20036;-81
2021/11/06 03:35:59;;;;;;;3.55;3.17;;;15.90;68.50;;;;;;4918828;29;20044;-81
2021/11/06 03:38:26;;;;;;;4.05;3.10;;;15.90;68.30;;;;;;4919416;29;20500;-81
2021/11/06 03:40:52;;;;;;;4.68;3.60;;;15.90;68.60;;;;;;4919821;29;20095;-81
2021/11/06 03:43:18;;;;;;;3.38;2.88;;;15.90;68.90;;;;;;4906917;29;20064;-81
2021/11/06 03:45:44;;;;;;;4.80;3.13;;;15.90;68.00;;;;;;4906806;29;20032;-81
2021/11/06 03:48:10;;;;;;;3.85;3.38;;;15.80;67.90;;;;;;4920927;29;20092;-81
2021/11/06 03:50:36;;;;;;;3.72;3.20;;;15.80;67.70;;;;;;4903388;29;20145;-81
2021/11/06 03:53:03;;;;;;;5.40;2.90;;;15.80;67.70;;;;;;4901488;29;20116;-81
2021/11/06 03:55:29;;;;;;;3.78;2.65;;;15.80;67.60;;;;;;4899814;29;20039;-81
2021/11/06 03:57:55;;;;;;;4.82;2.92;;;15.70;67.60;;;;;;4920367;29;20511;-81
2021/11/06 04:00:22;;;;;;;4.70;2.92;;;15.70;67.40;;;;;;4906379;29;20051;-81
2021/11/06 04:02:48;;;;;;;3.58;2.90;;;15.70;67.20;;;;;;4895632;29;20040;-82
2021/11/06 04:05:15;;;;;;;3.00;2.70;;;15.70;67.20;;;;;;4907435;29;20036;-81
2021/11/06 04:07:41;;;;;;;3.60;3.00;;;15.70;67.60;;;;;;4910499;29;20042;-79
2021/11/06 04:10:08;;;;;;;3.42;2.88;;;15.60;66.70;;;;;;4921788;29;20131;-82
2021/11/06 04:12:35;;;;;;;3.33;2.63;;;15.60;66.60;;;;;;4918910;29;20067;-81
2021/11/06 04:15:02;;;;;;;4.32;3.08;;;15.60;66.60;;;;;;4910708;29;20500;-81
2021/11/06 04:17:28;;;;;;;2.60;2.33;;;15.60;66.40;;;;;;4919954;29;20032;-81
2021/11/06 04:19:54;;;;;;;3.15;2.83;;;15.60;66.20;;;;;;4885594;29;20040;-82
2021/11/06 04:22:20;;;;;;;2.80;2.38;;;15.50;66.10;;;;;;4919155;29;20088;-80
2021/11/06 04:24:46;;;;;;;3.40;2.30;;;15.50;66.00;;;;;;4890770;29;20403;-82
2021/11/06 04:27:12;;;;;;;2.45;2.25;;;15.50;66.00;;;;;;4919470;29;20112;-81
2021/11/06 04:29:38;;;;;;;4.13;2.67;;;15.50;65.80;;;;;;4889702;29;20032;-82
2021/11/06 04:32:05;;;;;;;2.67;2.40;;;15.50;65.80;;;;;;4899441;29;20502;-81
2021/11/06 04:34:32;;;;;;;2.53;2.33;;;15.40;65.70;;;;;;4900101;29;20163;-82
2021/11/06 04:36:58;;;;;;;3.13;2.70;;;15.40;65.80;;;;;;4902551;29;20047;-82
2021/11/06 04:39:24;;;;;;;2.83;2.53;;;15.40;65.70;;;;;;4900231;29;20036;-80
2021/11/06 04:41:50;;;;;;;4.60;2.60;;;15.40;65.70;;;;;;4891074;29;20032;-80
2021/11/06 04:44:16;;;;;;;3.33;2.15;;;15.40;65.80;;;;;;4920327;29;20040;-80
2021/11/06 04:46:42;;;;;;;2.50;2.30;;;15.40;65.90;;;;;;4918700;29;20040;-80
2021/11/06 04:49:09;;;;;;;3.25;2.28;;;15.30;65.90;;;;;;4918712;29;20035;-79
2021/11/06 04:51:35;;;;;;;3.88;2.40;;;15.30;66.10;;;;;;4917750;29;20470;-80
2021/11/06 04:54:00;;;;;;;2.95;2.30;;;15.30;66.00;;;;;;4916328;29;20041;-80
2021/11/06 04:56:26;;;;;;;2.25;2.10;;;15.30;65.90;;;;;;4917573;29;20040;-80
2021/11/06 04:58:52;;;;;;;2.30;2.10;;;15.30;65.80;;;;;;4901883;29;20040;-80
2021/11/06 05:01:19;;;;;;;2.30;1.83;;;15.30;65.90;;;;;;4900700;29;20036;-80
2021/11/06 05:03:45;;;;;;;2.58;2.38;;;15.30;65.50;;;;;;4918610;29;20043;-79
2021/11/06 05:06:11;;;;;;;2.47;2.28;;;15.30;66.00;;;;;;4919006;29;20032;-79
2021/11/06 05:08:37;;;;;;;2.70;2.47;;;15.40;66.00;;;;;;4917282;29;20483;-80
2021/11/06 05:11:04;;;;;;;2.47;2.28;;;15.30;65.80;;;;;;4919244;29;20207;-79
2021/11/06 05:13:30;;;;;;;2.40;2.20;;;15.30;65.80;;;;;;4917992;29;20048;-80
2021/11/06 05:15:58;;;;;;;2.88;2.58;;;15.30;65.70;;;;;;4918146;29;20040;-80
2021/11/06 05:18:24;;;;;;;2.58;2.38;;;15.30;65.80;;;;;;4917857;29;20044;-81
2021/11/06 05:20:51;;;;;;;2.92;2.30;;;15.20;65.80;;;;;;4918400;29;20028;-80
2021/11/06 05:23:17;;;;;;;2.80;2.50;;;15.30;65.80;;;;;;4921159;29;20143;-80
2021/11/06 05:25:44;;;;;;;2.50;2.30;;;15.20;65.70;;;;;;4917271;29;20863;-80
2021/11/06 05:28:12;;;;;;;3.35;2.33;;;15.20;65.80;;;;;;4918740;29;20071;-80
2021/11/06 05:30:38;;;;;;;2.50;2.30;;;15.20;65.70;;;;;;4917765;29;20119;-80
2021/11/06 05:33:04;;;;;;;2.45;2.25;;;15.30;65.70;;;;;;4884018;29;20044;-79
2021/11/06 05:35:30;;;;;;;2.05;1.95;;;15.20;65.70;;;;;;4918249;29;20069;-80
2021/11/06 05:37:56;;;;;;;2.47;2.10;;;15.20;65.80;;;;;;4918582;29;20074;-79
2021/11/06 05:40:23;;;;;;;2.30;2.10;;;15.20;65.70;;;;;;4916461;29;20048;-79
2021/11/06 05:42:48;;;;;;;2.25;2.05;;;15.20;65.70;;;;;;4917923;29;20100;-78
2021/11/06 05:45:15;;;;;;;1.85;1.75;;;15.20;65.60;;;;;;4896966;29;20055;-80
2021/11/06 05:47:41;;;;;;;2.70;2.50;;;15.20;65.50;;;;;;4903738;29;20040;-80
2021/11/06 05:50:09;;;;;;;2.22;2.00;;;15.20;65.40;;;;;;4904626;29;20036;-79
2021/11/06 05:52:35;;;;;;;3.10;2.15;;;15.20;65.40;;;;;;4917595;29;20068;-78
2021/11/06 05:55:06;;;;;;;2.47;1.85;;;15.20;65.40;;;;;;4915855;29;20122;-79
2021/11/06 05:57:34;;;;;;;2.53;2.08;;;15.20;65.10;;;;;;4918359;29;20040;-80
2021/11/06 06:00:04;;;;;;;2.58;1.90;;;15.20;65.40;;;;;;4917609;29;20073;-78
2021/11/06 06:02:30;;;;;;;2.47;2.08;;;15.20;65.30;;;;;;4918187;29;20075;-80
2021/11/06 06:04:56;;;;;;;1.73;1.60;;;15.20;65.40;;;;;;4918304;29;20040;-81
2021/11/06 06:07:21;;;;;;;2.38;1.98;;;15.10;65.30;;;;;;4897508;29;20550;-79
2021/11/06 06:09:47;;;;;;;2.60;2.30;;;15.20;65.40;;;;;;4918948;29;20104;-81
2021/11/06 06:12:13;;;;;;;2.47;2.28;;;15.10;65.40;;;;;;4892417;29;20048;-78
2021/11/06 06:14:39;;;;;;;4.65;2.30;;;15.10;65.40;;;;;;4915165;29;20231;-81
2021/11/06 06:17:05;;;;;;;6.60;2.33;;;15.20;67.90;;;;;;4918568;29;20040;-79
2021/11/06 06:19:31;;;;;;;6.63;2.53;;;15.20;76.10;;;;;;4895010;29;20075;-78
2021/11/06 06:21:57;;;;;;;3.95;2.60;;;15.40;75.60;;;;;;4915759;29;20036;-77
2021/11/06 06:24:23;;;;;;;6.63;2.60;;;15.40;73.70;;;;;;4913152;29;20562;-79
2021/11/06 06:26:50;;;;;;;5.90;2.55;;;15.50;72.00;;;;;;4893248;29;20044;-78
2021/11/06 06:29:17;;;;;;;2.42;2.20;;;15.50;70.50;;;;;;4914273;29;20047;-76
2021/11/06 06:31:43;;;;;;;4.25;2.33;;;15.50;69.30;;;;;;4895617;29;20028;-78
2021/11/06 06:34:09;;;;;;;7.20;2.60;;;15.50;68.40;;;;;;4913074;29;20043;-79
2021/11/06 06:36:35;;;;;;;3.03;2.63;;;15.40;67.80;;;;;;4913718;29;20043;-81
2021/11/06 06:39:02;;;;;;;4.20;2.35;;;15.40;67.20;;;;;;4914507;29;20048;-78
2021/11/06 06:41:28;;;;;;;4.40;2.28;;;15.40;66.90;;;;;;4917528;29;20070;-88
2021/11/06 06:43:53;;;;;;;2.63;2.42;;;15.40;67.50;;;;;;4924501;29;20039;-89
2021/11/06 06:46:20;;;;;;;2.30;2.10;;;15.40;67.20;;;;;;4925253;29;20051;-88
2021/11/06 06:48:46;;;;;;;2.83;2.40;;;15.40;66.60;;;;;;4924516;29;20044;-90
2021/11/06 06:51:15;;;;;;;3.05;2.15;;;15.40;66.20;;;;;;4924599;29;20032;-88
2021/11/06 06:53:41;;;;;;;3.92;2.63;;;15.30;66.30;;;;;;4925399;29;20537;-88
2021/11/06 06:56:08;;;;;;;7.00;2.63;;;15.30;66.20;;;;;;4926873;29;20415;-89
2021/11/06 06:58:34;;;;;;;5.28;2.50;;;15.20;66.20;;;;;;4926076;29;20074;-88
2021/11/06 07:01:01;;;;;;;4.05;2.20;;;15.20;66.60;;;;;;4925805;29;20036;-89
2021/11/06 07:03:27;;;;;;;2.88;2.58;;;15.20;67.10;;;;;;4921696;29;20084;-86
2021/11/06 07:05:53;;;;;;;3.33;2.72;;;15.20;66.60;;;;;;4925137;29;20044;-89
2021/11/06 07:08:21;;;;;;;4.30;3.08;;;15.10;66.30;;;;;;4903381;29;20075;-87
2021/11/06 07:10:47;;;;;;;3.83;2.30;;;15.10;66.40;;;;;;4924853;29;20411;-84
2021/11/06 07:13:19;;;;;;;5.90;2.85;;;15.10;67.00;;;;;;4920248;29;20060;-83
2021/11/06 07:15:45;;;;;;;4.15;2.90;;;15.10;66.80;;;;;;4922625;29;20107;-84
2021/11/06 07:18:11;;;;;;;3.22;2.60;;;15.10;67.00;;;;;;4907117;29;20029;-83
2021/11/06 07:20:37;;;;;;;2.80;2.30;;;15.10;66.70;;;;;;4907174;29;20056;-84
2021/11/06 07:23:03;;;;;;;5.50;2.58;;;15.10;66.60;;;;;;4922805;29;20032;-83
2021/11/06 07:25:29;;;;;;;4.68;2.60;;;15.00;66.80;;;;;;4905350;29;20039;-83
2021/11/06 07:27:55;;;;;;;3.00;2.70;;;15.00;66.90;;;;;;4888377;29;20036;-83
2021/11/06 07:30:21;;;;;;;2.90;2.70;;;15.00;67.20;;;;;;4923590;29;20554;-82
2021/11/06 07:32:48;;;;;;;3.47;2.67;;;15.00;67.40;;;;;;4907014;29;20040;-83
2021/11/06 07:35:15;;;;;;;4.50;3.28;;;15.00;66.80;;;;;;4920208;29;20024;-83
2021/11/06 07:37:41;;;;;;;3.30;2.65;;;15.00;67.20;;;;;;4922706;29;20064;-81
2021/11/06 07:40:08;;;;;;;3.53;2.25;;;15.00;67.10;;;;;;4923824;29;20046;-83
2021/11/06 07:42:37;;;;;;;4.70;2.58;;;15.00;68.00;;;;;;4926287;29;20118;-90
2021/11/06 07:45:05;;;;;;;4.72;2.40;;;15.00;67.50;;;;;;4922804;29;20040;-85
2021/11/06 07:47:31;;;;;;;2.60;2.40;;;15.10;67.20;;;;;;4901852;29;20055;-83
2021/11/06 07:49:58;;;;;;;4.65;2.70;;;15.10;66.60;;;;;;4925641;29;20072;-82
2021/11/06 07:52:24;;;;;;;6.25;2.78;;;15.10;66.60;;;;;;4917149;29;20029;-83
2021/11/06 07:54:50;;;;;;;4.72;2.50;;;15.10;66.70;;;;;;4923514;29;20052;-83
2021/11/06 07:57:16;;;;;;;4.25;2.55;;;15.10;66.60;;;;;;4917417;29;20043;-83
2021/11/06 07:59:42;;;;;;;2.80;2.47;;;15.10;66.20;;;;;;4889247;29;20649;-82
2021/11/06 08:02:08;;;;;;;4.55;2.70;;;15.10;66.40;;;;;;4925851;29;20067;-84
2021/11/06 08:04:34;;;;;;;2.30;2.10;;;15.10;66.70;;;;;;4922569;29;20100;-89
2021/11/06 08:07:00;;;;;;;2.70;2.50;;;15.10;66.50;;;;;;4922386;29;20125;-87
2021/11/06 08:09:26;;;;;;;4.05;2.40;;;15.10;66.40;;;;;;4920088;29;20028;-89
2021/11/06 08:11:52;;;;;;;4.88;2.20;;;15.10;66.30;;;;;;4921645;29;20028;-90
2021/11/06 08:14:18;;;;;;;3.92;2.40;;;15.10;66.30;;;;;;4920816;29;20043;-92
2021/11/06 08:16:44;;;;;;;3.60;2.38;;;15.10;66.40;;;;;;4920864;29;20072;-86
2021/11/06 08:19:14;;;;;;;2.78;2.30;;;15.10;66.00;;;;;;4920687;29;20500;-89
2021/11/06 08:21:40;;;;;;;2.72;2.53;;;15.10;66.00;;;;;;4892338;29;20084;-86
2021/11/06 08:24:06;;;;;;;3.40;2.10;;;15.10;65.70;;;;;;4923019;29;20039;-87
2021/11/06 08:26:33;;;;;;;3.35;2.40;;;15.10;65.60;;;;;;4886136;29;20040;-87
2021/11/06 08:28:59;;;;;;;2.97;2.58;;;15.10;65.70;;;;;;4903958;29;20031;-88
2021/11/06 08:31:25;;;;;;;6.22;2.45;;;15.00;65.60;;;;;;4918728;29;20024;-86
2021/11/06 08:33:51;;;;;;;3.55;2.33;;;15.00;65.70;;;;;;4905961;29;20040;-88
2021/11/06 08:36:17;;;;;;;5.22;2.58;;;15.00;66.50;;;;;;4919791;29;20028;-89
2021/11/06 08:38:43;;;;;;;2.38;2.10;;;15.00;65.70;;;;;;4899442;29;21459;-87
2021/11/06 08:41:09;;;;;;;4.90;1.92;;;15.00;65.30;;;;;;4902595;29;20095;-87
2021/11/06 08:43:35;;;;;;;4.47;2.20;;;15.00;65.40;;;;;;4920181;29;20136;-88
2021/11/06 08:46:02;;;;;;;4.18;2.05;;;15.00;65.60;;;;;;4906651;29;20047;-85
2021/11/06 08:48:28;;;;;;;1.92;1.83;;;15.00;65.70;;;;;;4920573;29;20132;-86
2021/11/06 08:50:55;;;;;;;2.80;1.90;;;15.00;65.90;;;;;;4904107;29;20032;-86
2021/11/06 08:53:21;;;;;;;3.05;2.28;;;15.00;66.00;;;;;;4922749;29;20040;-85
2021/11/06 08:55:47;;;;;;;2.47;2.25;;;15.00;65.80;;;;;;4893463;29;20032;-87
2021/11/06 08:58:12;;;;;;;11.93;2.13;;;15.00;65.80;;;;;;4903672;29;20411;-87
2021/11/06 09:00:42;;;;;;;4.55;2.35;;;15.00;65.70;;;;;;4888206;29;20039;-86
2021/11/06 09:03:12;;;;;;;7.95;2.40;;;15.00;65.70;;;;;;4920350;29;20043;-86
2021/11/06 09:05:42;;;;;;;3.38;2.50;;;15.00;65.80;;;;;;4917686;29;20083;-86
2021/11/06 09:08:09;;;;;;;3.90;2.00;;;15.00;66.00;;;;;;4890287;29;20152;-87
2021/11/06 09:10:35;;;;;;;3.72;2.00;;;15.10;66.00;;;;;;4902399;29;20032;-87
2021/11/06 09:13:01;;;;;;;4.82;2.63;;;15.10;65.80;;;;;;4890286;29;20080;-87
2021/11/06 09:15:27;;;;;;;3.42;1.90;;;15.00;65.70;;;;;;4889928;29;20024;-87
2021/11/06 09:17:53;;;;;;;4.47;2.53;;;15.00;65.50;;;;;;4899902;29;20131;-86
2021/11/06 09:20:20;;;;;;;3.13;2.08;;;15.00;65.30;;;;;;4904088;29;20063;-86
2021/11/06 09:22:46;;;;;;;2.95;2.03;;;15.00;65.40;;;;;;4900961;29;20420;-85
2021/11/06 09:25:13;;;;;;;2.58;2.00;;;15.10;65.50;;;;;;4886494;29;20035;-86
2021/11/06 09:27:39;;;;;;;3.70;1.98;;;15.00;65.50;;;;;;4882591;29;20040;-86
2021/11/06 09:30:07;;;;;;;3.72;1.85;;;15.00;65.50;;;;;;4918210;29;20036;-86
2021/11/06 09:32:35;;;;;;;3.33;2.20;;;15.10;65.50;;;;;;4906016;29;20395;-86
2021/11/06 09:35:02;;;;;;;1.98;1.80;;;15.10;65.40;;;;;;4919212;29;20032;-86
2021/11/06 09:37:28;;;;;;;2.97;2.22;;;15.10;65.40;;;;;;4917698;29;20036;-86
2021/11/06 09:39:54;;;;;;;3.28;1.90;;;15.10;65.30;;;;;;4888528;29;20887;-86
2021/11/06 09:42:20;;;;;;;2.38;2.00;;;15.10;65.20;;;;;;4900949;29;20075;-86
2021/11/06 09:44:49;;;;;;;4.32;2.05;;;15.10;65.90;;;;;;4890010;29;20039;-87
2021/11/06 09:47:17;;;;;;;4.70;2.15;;;15.10;65.50;;;;;;4918524;29;20028;-86
2021/11/06 09:49:43;;;;;;;5.22;2.30;;;15.10;65.20;;;;;;4904946;29;20032;-87
2021/11/06 09:52:11;;;;;;;2.58;2.28;;;15.10;65.10;;;;;;4917403;29;20508;-87
2021/11/06 09:54:39;;;;;;;2.50;1.88;;;15.20;65.50;;;;;;4882214;29;20036;-87
2021/11/06 09:57:05;;;;;;;3.42;2.03;;;15.20;65.40;;;;;;4917055;29;20104;-85
2021/11/06 09:59:32;;;;;;;3.45;2.47;;;15.20;65.20;;;;;;4898964;29;20084;-88
2021/11/06 10:01:59;;;;;;;3.22;2.30;;;15.10;64.90;;;;;;4900761;29;20047;-87
2021/11/06 10:04:26;;;;;;;2.58;2.00;;;15.10;65.00;;;;;;4897579;29;20039;-87
2021/11/06 10:06:53;;;;;;;5.57;2.38;;;15.10;64.80;;;;;;4884436;29;20134;-87
2021/11/06 10:09:19;;;;;;;2.25;1.98;;;15.10;64.60;;;;;;4899290;29;20043;-88
2021/11/06 10:11:47;;;;;;;2.78;2.13;;;15.10;64.70;;;;;;4897365;29;20043;-86
2021/11/06 10:14:19;;;;;;;2.97;1.98;;;15.20;64.80;;;;;;4917265;29;20109;-87
2021/11/06 10:16:57;;;;;;;4.70;1.95;;;15.20;64.40;;;;;;4908497;29;20055;-85
2021/11/06 10:19:30;;;;;;;3.05;1.77;;;15.10;64.40;;;;;;4903863;29;20043;-86
2021/11/06 10:22:11;;;;;;;2.63;1.95;;;15.20;64.00;;;;;;4919518;29;20067;-87
2021/11/06 10:24:50;;;;;;;1.92;1.70;;;15.20;63.90;;;;;;4899482;29;20099;-87
2021/11/06 10:27:18;;;;;;;2.92;1.77;;;15.20;63.70;;;;;;4918524;29;20051;-87
2021/11/06 10:29:58;;;;;;;5.70;1.83;;;15.20;63.70;;;;;;4904349;29;20092;-88
2021/11/06 10:32:24;;;;;;;2.10;1.90;;;15.20;63.80;;;;;;4899116;29;20127;-89
2021/11/06 10:34:52;;;;;;;3.75;1.40;;;15.20;63.70;;;;;;4917965;29;20036;-90
2021/11/06 10:37:19;;;;;;;4.40;1.65;;;15.20;62.90;;;;;;4919347;29;20032;-88
2021/11/06 10:39:59;;;;;;;3.55;1.88;;;15.20;62.60;;;;;;4897050;29;20062;-86
2021/11/06 10:42:27;;;;;;;3.25;2.00;;;15.20;62.60;;;;;;4905598;29;20040;-88
2021/11/06 10:45:14;;;;;;;5.63;1.33;;;15.20;62.80;;;;;;4918274;29;20040;-88
2021/11/06 10:48:00;;;;;;;2.97;1.60;;;15.20;62.60;;;;;;4915984;29;20044;-89
2021/11/06 10:50:40;;;;;;;3.65;1.52;;;15.20;62.40;;;;;;4904175;29;20032;-87
2021/11/06 10:53:07;;;;;;;1.73;1.20;;;15.20;62.00;;;;;;4913730;29;20123;-87
2021/11/06 10:55:35;;;;;;;3.90;1.38;;;15.10;61.70;;;;;;4915736;29;20037;-89
2021/11/06 10:58:22;;;;;;;3.28;1.33;;;15.10;61.60;;;;;;4917009;29;21230;-85
2021/11/06 11:00:50;;;;;;;2.22;1.40;;;15.20;61.80;;;;;;4916088;29;20060;-88
2021/11/06 11:03:38;;;;;;;4.15;1.45;;;15.10;61.80;;;;;;4904470;29;20047;-86
2021/11/06 11:06:19;;;;;;;3.58;1.85;;;15.20;62.10;;;;;;4893167;29;20037;-86
2021/11/06 11:08:51;;;;;;;3.15;1.27;;;15.20;62.00;;;;;;4904718;29;20083;-86
2021/11/06 11:11:19;;;;;;;2.67;1.58;;;15.20;62.20;;;;;;4905387;29;20671;-89
2021/11/06 11:13:54;;;;;;;3.97;1.50;;;15.20;62.00;;;;;;4904701;29;20044;-87
2021/11/06 11:16:21;;;;;;;2.05;1.60;;;15.20;62.00;;;;;;4901879;29;20041;-88
2021/11/06 11:19:02;;;;;;;3.67;1.30;;;15.20;62.10;;;;;;4899237;29;20068;-87
2021/11/06 11:21:43;;;;;;;4.57;1.67;;;15.20;61.80;;;;;;4902729;29;20059;-83
2021/11/06 11:24:17;;;;;;;3.10;1.35;;;15.20;61.90;;;;;;4888407;29;20096;-84
2021/11/06 11:26:49;;;;;;;2.20;1.58;;;15.20;61.70;;;;;;4886967;29;20045;-85
2021/11/06 11:29:21;;;;;;;2.80;1.40;;;15.20;61.50;;;;;;4899470;29;20037;-86
2021/11/06 11:31:47;;;;;;;3.95;1.30;;;15.20;61.60;;;;;;4908669;29;20507;-87
2021/11/06 11:34:13;;;;;;;1.70;1.40;;;15.20;61.60;;;;;;4890715;29;20030;-87
2021/11/06 11:36:43;;;;;;;3.50;1.17;;;15.20;61.70;;;;;;4891917;29;20064;-87
2021/11/06 11:39:13;;;;;;;3.33;1.10;;;15.20;61.20;;;;;;4904890;29;20043;-88
2021/11/06 11:41:46;;;;;;;5.03;1.20;;;15.20;60.90;;;;;;4887433;29;20043;-87
2021/11/06 11:44:57;;;;;;;2.30;1.10;;;15.20;60.70;;;;;;4923577;29;20351;-87
2021/11/06 11:47:29;;;;;;;3.03;1.45;;;15.20;61.20;;;;;;4892353;29;20040;-86
2021/11/06 11:49:59;;;;;;;2.20;1.10;;;15.10;61.80;;;;;;4921070;29;20071;-87
2021/11/06 11:52:32;;;;;;;1.40;1.30;;;15.10;60.90;;;;;;4919593;29;20040;-85
2021/11/06 11:55:12;;;;;;;1.90;1.30;;;15.20;61.00;;;;;;4921611;29;20040;-88
2021/11/06 11:57:42;;;;;;;2.03;1.33;;;15.20;60.90;;;;;;4904129;29;20047;-86
2021/11/06 12:00:17;;;;;;;2.53;1.30;;;15.20;60.90;;;;;;4892611;29;20435;-87
2021/11/06 12:02:54;;;;;;;3.13;1.27;;;15.20;61.20;;;;;;4887244;29;20037;-87
2021/11/06 12:05:26;;;;;;;0.98;0.98;;;15.10;61.20;;;;;;4892927;29;20043;-88
2021/11/06 12:08:11;;;;;;;3.53;1.05;;;15.10;60.80;;;;;;4901958;29;20055;-88
2021/11/06 12:11:00;;;;;;;4.03;1.25;;;15.20;60.90;;;;;;4903297;29;20080;-87
2021/11/06 12:13:30;;;;;;;1.52;1.00;;;15.10;60.90;;;;;;4903781;29;20535;-86
2021/11/06 12:15:58;;;;;;;3.75;1.08;;;15.10;60.80;;;;;;4902180;29;20448;-87
2021/11/06 12:18:33;;;;;;;2.50;0.90;;;15.10;60.90;;;;;;4890694;29;20523;-88
2021/11/06 12:21:21;;;;;;;1.17;0.93;;;15.10;61.40;;;;;;4891030;29;20040;-88
2021/11/06 12:23:49;;;;;;;2.33;0.93;;;15.10;61.90;;;;;;4919029;29;20047;-88
2021/11/06 12:26:18;;;;;;;2.05;1.20;;;15.10;61.90;;;;;;4899594;29;20043;-88
2021/11/06 12:28:46;;;;;;;2.63;1.10;;;15.10;62.00;;;;;;4906254;29;20032;-87
2021/11/06 12:31:37;;;;;;;2.95;1.10;;;15.20;61.80;;;;;;4885845;29;20070;-87
2021/11/06 12:34:04;;;;;;;3.47;1.25;;;15.20;61.80;;;;;;4891322;29;20415;-87
2021/11/06 12:36:32;;;;;;;2.50;1.40;;;15.20;62.20;;;;;;4902754;29;20063;-88
2021/11/06 12:39:03;;;;;;;3.38;1.15;;;15.10;62.30;;;;;;4882912;29;20035;-88
2021/11/06 12:41:37;;;;;;;6.90;1.23;;;15.10;62.50;;;;;;4907820;29;20043;-88
2021/11/06 12:44:09;;;;;;;2.65;2.00;;;15.10;62.40;;;;;;4921526;29;20051;-87
2021/11/06 12:46:39;;;;;;;4.70;2.20;;;15.10;62.40;;;;;;4888317;29;20056;-89
2021/11/06 12:49:11;;;;;;;6.95;3.28;;;15.10;62.20;;;;;;4894650;29;20064;-88